createdAt,value
2018-06-02T06:33:05.223Z,17.10
2018-06-02T06:51:19.595Z,16.70
2018-06-02T06:53:48.395Z,16.80
2018-06-02T06:56:16.068Z,16.90
2018-06-02T06:58:43.666Z,17.00
2018-06-02T07:01:11.271Z,17.00
2018-06-02T07:03:38.888Z,17.00
2018-06-02T07:06:06.533Z,17.10
2018-06-02T07:08:34.149Z,17.20
2018-06-02T07:11:01.761Z,17.20
2018-06-02T07:13:31.990Z,17.30
2018-06-02T07:15:59.640Z,17.30
2018-06-02T07:18:27.295Z,17.40
2018-06-02T07:20:54.940Z,17.40
2018-06-02T07:23:23.850Z,17.60
2018-06-02T07:25:51.489Z,17.60
2018-06-02T07:28:19.880Z,17.70
2018-06-02T07:30:48.282Z,17.80
2018-06-02T07:33:15.869Z,17.80
2018-06-02T07:35:43.470Z,17.90
2018-06-02T07:38:11.849Z,18.00
2018-06-02T07:40:40.228Z,18.00
2018-06-02T07:43:08.608Z,18.00
2018-06-02T07:45:36.991Z,18.10
2018-06-02T07:48:04.587Z,18.10
2018-06-02T07:50:32.209Z,18.10
2018-06-02T07:53:00.743Z,18.30
2018-06-02T07:55:28.379Z,18.20
2018-06-02T07:57:56.000Z,18.30
2018-06-02T08:00:24.468Z,18.50
2018-06-02T08:02:52.079Z,18.50
2018-06-02T08:05:19.676Z,18.50
2018-06-02T08:07:47.320Z,18.60
2018-06-02T08:10:14.991Z,18.70
2018-06-02T08:12:42.578Z,18.80
2018-06-02T08:15:10.932Z,18.80
2018-06-02T08:17:38.542Z,18.80
2018-06-02T08:20:06.166Z,18.90
2018-06-02T08:22:33.801Z,18.90
2018-06-02T08:25:01.420Z,19.00
2018-06-02T08:27:29.039Z,19.00
2018-06-02T08:29:56.748Z,19.10
2018-06-02T08:32:25.274Z,19.10
2018-06-02T08:34:52.879Z,19.20
2018-06-02T08:37:20.497Z,19.40
2018-06-02T08:39:48.163Z,19.40
2018-06-02T08:42:15.805Z,19.50
2018-06-02T08:44:43.578Z,19.50
2018-06-02T08:47:11.941Z,19.60
2018-06-02T08:49:39.602Z,19.60
2018-06-02T08:52:07.256Z,19.70
2018-06-02T08:54:35.045Z,19.80
2018-06-02T08:57:02.915Z,19.80
2018-06-02T08:59:30.578Z,19.90
2018-06-02T09:01:58.192Z,19.90
2018-06-02T09:04:25.817Z,20.00
2018-06-02T09:06:54.205Z,20.20
2018-06-02T09:09:22.630Z,20.20
2018-06-02T09:11:50.343Z,20.20
2018-06-02T09:14:18.699Z,20.50
2018-06-02T09:16:46.301Z,20.40
2018-06-02T09:19:13.950Z,20.50
2018-06-02T09:21:41.681Z,20.70
2018-06-02T09:24:09.369Z,20.80
2018-06-02T09:26:37.127Z,21.00
2018-06-02T09:29:05.769Z,21.10
2018-06-02T09:31:33.427Z,21.10
2018-06-02T09:34:01.090Z,21.20
2018-06-02T09:36:28.707Z,21.30
2018-06-02T09:38:56.335Z,21.40
2018-06-02T09:41:24.029Z,21.50
2018-06-02T09:43:51.622Z,21.60
2018-06-02T09:46:19.259Z,21.70
2018-06-02T09:48:46.859Z,21.80
2018-06-02T09:51:14.447Z,21.80
2018-06-02T09:53:42.806Z,22.00
2018-06-02T09:56:10.448Z,22.00
2018-06-02T09:58:38.083Z,22.10
2018-06-02T10:01:05.723Z,22.20
2018-06-02T10:03:33.334Z,22.30
2018-06-02T10:06:00.919Z,22.40
2018-06-02T10:08:28.588Z,22.50
2018-06-02T10:10:56.239Z,22.60
2018-06-02T10:13:23.861Z,22.70
2018-06-02T10:15:51.479Z,22.70
2018-06-02T10:18:19.885Z,22.90
2018-06-02T10:20:47.520Z,22.90
2018-06-02T10:23:15.958Z,23.10
2018-06-02T10:25:43.561Z,23.10
2018-06-02T10:28:11.977Z,23.20
2018-06-02T10:30:39.590Z,23.20
2018-06-02T10:33:07.968Z,23.30
2018-06-02T10:35:36.395Z,23.40
2018-06-02T10:38:04.032Z,23.40
2018-06-02T10:40:31.676Z,23.40
2018-06-02T10:43:00.050Z,23.60
2018-06-02T10:45:28.455Z,23.70
2018-06-02T10:47:56.095Z,23.60
2018-06-02T10:52:13.930Z,23.90
2018-06-02T10:54:42.380Z,24.20
2018-06-02T10:57:09.984Z,24.10
2018-06-02T10:59:37.644Z,24.30
2018-06-02T11:02:05.299Z,24.30
2018-06-02T11:04:33.665Z,24.50
2018-06-02T11:07:02.035Z,24.60
2018-06-02T11:09:29.634Z,24.50
2018-06-02T11:11:57.270Z,24.60
2018-06-02T11:14:25.082Z,24.70
2018-06-02T11:16:52.716Z,24.70
2018-06-02T11:19:20.304Z,24.80
2018-06-02T11:21:47.892Z,24.80
2018-06-02T11:24:15.505Z,24.80
2018-06-02T11:26:43.091Z,24.80
2018-06-02T11:29:10.670Z,24.80
2018-06-02T11:31:38.329Z,25.00
2018-06-02T11:34:05.943Z,25.10
2018-06-02T11:36:33.541Z,25.20
2018-06-02T11:39:01.160Z,25.30
2018-06-02T11:41:28.769Z,25.40
2018-06-02T11:43:56.390Z,25.60
2018-06-02T11:46:24.013Z,25.70
2018-06-02T11:48:52.389Z,25.90
2018-06-02T11:51:20.784Z,26.00
2018-06-02T11:53:48.420Z,26.00
2018-06-02T11:56:16.778Z,26.20
2018-06-02T11:58:44.380Z,26.20
2018-06-02T12:01:12.048Z,26.30
2018-06-02T12:03:39.692Z,26.40
2018-06-02T12:06:08.078Z,26.50
2018-06-02T12:08:35.704Z,26.50
2018-06-02T12:11:03.301Z,26.60
2018-06-02T12:13:30.888Z,26.70
2018-06-02T12:15:58.540Z,26.80
2018-06-02T12:18:26.158Z,26.90
2018-06-02T12:20:54.541Z,27.10
2018-06-02T12:23:22.898Z,27.20
2018-06-02T12:25:50.532Z,27.20
2018-06-02T12:28:18.237Z,27.30
2018-06-02T12:30:45.818Z,27.30
2018-06-02T12:33:13.432Z,27.50
2018-06-02T12:35:41.028Z,27.50
2018-06-02T12:38:09.406Z,27.60
2018-06-02T12:40:37.826Z,27.60
2018-06-02T12:43:05.480Z,27.60
2018-06-02T12:45:33.089Z,27.60
2018-06-02T12:48:00.714Z,27.80
2018-06-02T12:50:28.336Z,27.90
2018-06-02T12:52:55.959Z,28.00
2018-06-02T12:55:23.571Z,28.00
2018-06-02T12:57:51.158Z,28.10
2018-06-02T13:00:18.852Z,28.30
2018-06-02T13:02:47.242Z,28.50
2018-06-02T13:05:15.664Z,28.60
2018-06-02T13:07:43.250Z,28.60
2018-06-02T13:10:10.877Z,28.70
2018-06-02T13:12:38.663Z,28.80
2018-06-02T13:15:06.282Z,29.00
2018-06-02T13:17:33.895Z,29.00
2018-06-02T13:20:01.500Z,29.00
2018-06-02T13:22:30.058Z,28.90
2018-06-02T13:24:58.590Z,28.50
2018-06-02T13:27:27.013Z,28.40
2018-06-02T13:29:54.632Z,28.20
2018-06-02T13:32:22.252Z,28.00
2018-06-02T13:34:51.740Z,27.60
2018-06-02T13:37:20.138Z,27.50
2018-06-02T13:39:47.740Z,27.50
2018-06-02T13:42:15.559Z,27.40
2018-06-02T13:44:43.189Z,27.40
2018-06-02T13:47:17.731Z,27.30
2018-06-02T13:49:46.147Z,27.00
2018-06-02T13:52:13.844Z,27.00
2018-06-02T13:54:41.790Z,26.90
2018-06-02T13:57:09.654Z,26.70
2018-06-02T13:59:37.509Z,26.60
2018-06-02T14:02:05.345Z,26.40
2018-06-02T14:04:33.911Z,26.00
2018-06-02T14:07:02.432Z,25.70
2018-06-02T14:09:30.303Z,25.60
2018-06-02T14:11:58.966Z,25.20
2018-06-02T14:14:26.776Z,24.60
2018-06-02T14:16:57.506Z,24.20
2018-06-02T14:19:26.036Z,24.00
2018-06-02T14:21:54.520Z,23.50
2018-06-02T14:24:22.970Z,23.20
2018-06-02T14:26:50.661Z,23.20
2018-06-02T14:29:18.333Z,22.90
2018-06-02T14:31:45.939Z,22.70
2018-06-02T14:34:13.540Z,22.50
2018-06-02T14:36:42.132Z,21.70
2018-06-02T14:39:09.825Z,21.60
2018-06-02T14:41:38.285Z,21.50
2018-06-02T14:44:06.318Z,21.40
2018-06-02T14:46:34.148Z,21.30
2018-06-02T14:49:01.758Z,21.10
2018-06-02T14:51:30.158Z,21.00
2018-06-02T14:53:57.759Z,21.00
2018-06-02T14:56:25.376Z,20.80
2018-06-02T14:58:52.979Z,20.70
2018-06-02T15:01:20.636Z,20.60
2018-06-02T15:03:48.285Z,20.50
2018-06-02T15:06:15.948Z,20.60
2018-06-02T15:08:43.571Z,20.50
2018-06-02T15:11:11.177Z,20.50
2018-06-02T15:13:38.827Z,20.40
2018-06-02T15:16:06.659Z,20.40
2018-06-02T15:18:34.260Z,20.40
2018-06-02T15:21:01.880Z,20.30
2018-06-02T15:23:29.516Z,20.30
2018-06-02T15:25:57.960Z,20.20
2018-06-02T15:28:25.628Z,20.20
2018-06-02T15:30:53.304Z,20.10
2018-06-02T15:33:20.934Z,20.00
2018-06-02T15:35:48.547Z,19.90
2018-06-02T15:38:16.181Z,19.80
2018-06-02T15:40:43.789Z,19.70
2018-06-02T15:43:11.387Z,19.50
2018-06-02T15:45:39.077Z,19.40
2018-06-02T15:48:07.530Z,19.40
2018-06-02T15:50:35.201Z,19.30
2018-06-02T15:53:02.915Z,19.10
2018-06-02T15:55:30.559Z,19.00
2018-06-02T15:57:58.180Z,18.90
2018-06-02T16:00:25.892Z,18.90
2018-06-02T16:02:53.539Z,18.90
2018-06-02T16:05:21.950Z,18.80
2018-06-02T16:07:49.639Z,18.80
2018-06-02T16:10:17.262Z,18.90
2018-06-02T16:12:44.939Z,19.00
2018-06-02T16:15:12.660Z,19.00
2018-06-02T16:17:41.110Z,19.10
2018-06-02T16:20:08.842Z,19.10
2018-06-02T16:22:36.548Z,19.10
2018-06-02T16:25:05.031Z,19.20
2018-06-02T16:27:34.168Z,19.20
2018-06-02T16:30:01.772Z,19.20
2018-06-02T16:32:29.351Z,19.20
2018-06-02T16:34:57.692Z,19.20
2018-06-02T16:37:26.217Z,19.20
2018-06-02T16:39:56.450Z,19.20
2018-06-02T16:42:24.090Z,19.20
2018-06-02T16:44:52.529Z,19.30
2018-06-02T16:47:20.239Z,19.30
2018-06-02T16:49:47.995Z,19.30
2018-06-02T16:52:15.638Z,19.30
2018-06-02T16:54:43.270Z,19.30
2018-06-02T16:57:10.989Z,19.30
2018-06-02T16:59:39.900Z,19.10
2018-06-02T17:02:09.369Z,19.10
2018-06-02T17:04:38.928Z,19.00
2018-06-02T17:07:06.540Z,19.00
2018-06-02T17:09:34.947Z,18.70
2018-06-02T17:12:02.567Z,18.70
2018-06-02T17:14:30.179Z,18.60
2018-06-02T17:16:57.800Z,18.60
2018-06-02T17:19:26.161Z,18.50
2018-06-02T17:21:53.815Z,18.50
2018-06-02T17:24:21.423Z,18.40
2018-06-02T17:26:49.060Z,18.40
2018-06-02T17:29:17.467Z,18.30
2018-06-02T17:31:45.060Z,18.30
2018-06-02T17:34:12.679Z,18.40
2018-06-02T17:36:40.316Z,18.40
2018-06-02T17:39:08.700Z,18.20
2018-06-02T17:41:37.090Z,18.20
2018-06-02T17:44:04.720Z,18.20
2018-06-02T17:46:32.320Z,18.20
2018-06-02T17:48:59.973Z,18.30
2018-06-02T17:51:27.605Z,18.30
2018-06-02T17:53:55.325Z,18.30
2018-06-02T17:56:22.967Z,18.40
2018-06-02T17:58:50.613Z,18.40
2018-06-02T18:01:18.980Z,18.60
2018-06-02T18:03:47.358Z,18.60
2018-06-02T18:06:15.789Z,18.70
2018-06-02T18:08:43.415Z,18.70
2018-06-02T18:11:11.033Z,18.70
2018-06-02T18:13:38.649Z,18.70
2018-06-02T18:16:06.236Z,18.70
2018-06-02T18:18:33.880Z,18.70
2018-06-02T18:21:05.331Z,18.70
2018-06-02T18:23:32.969Z,18.70
2018-06-02T18:26:00.592Z,18.70
2018-06-02T18:28:28.219Z,18.60
2018-06-02T18:30:55.869Z,18.50
2018-06-02T18:33:24.240Z,18.50
2018-06-02T18:35:51.870Z,18.50
2018-06-02T18:38:20.245Z,18.50
2018-06-02T18:40:48.632Z,18.60
2018-06-02T18:43:17.029Z,18.60
2018-06-02T18:45:44.653Z,18.60
2018-06-02T18:48:13.020Z,18.60
2018-06-02T18:50:40.639Z,18.60
2018-06-02T18:53:08.259Z,18.60
2018-06-02T18:55:36.659Z,18.50
2018-06-02T18:58:04.285Z,18.50
2018-06-02T19:00:31.915Z,18.40
2018-06-02T19:02:59.531Z,18.40
2018-06-02T19:05:27.329Z,18.30
2018-06-02T19:07:54.992Z,18.30
2018-06-02T19:10:22.600Z,18.20
2018-06-02T19:12:51.005Z,18.20
2018-06-02T19:15:18.684Z,18.10
2018-06-02T19:17:47.049Z,18.20
2018-06-02T19:20:14.689Z,18.10
2018-06-02T19:22:42.375Z,18.20
2018-06-02T19:25:09.992Z,18.20
2018-06-02T19:27:37.575Z,18.20
2018-06-02T19:30:05.228Z,18.20
2018-06-02T19:32:33.655Z,18.10
2018-06-02T19:35:01.249Z,18.10
2018-06-02T19:37:28.842Z,18.10
2018-06-02T19:39:56.458Z,18.10
2018-06-02T19:42:24.059Z,18.00
2018-06-02T19:44:51.659Z,18.00
2018-06-02T19:47:19.278Z,17.90
2018-06-02T19:49:46.911Z,17.90
2018-06-02T19:52:14.520Z,17.80
2018-06-02T19:54:42.166Z,17.80
2018-06-02T19:57:09.781Z,17.80
2018-06-02T19:59:37.370Z,17.80
2018-06-02T20:02:04.979Z,17.80
2018-06-02T20:04:32.601Z,17.80
2018-06-02T20:07:00.188Z,17.70
2018-06-02T20:09:27.781Z,17.80
2018-06-02T20:11:55.396Z,17.80
2018-06-02T20:14:23.010Z,17.80
2018-06-02T20:16:51.371Z,17.70
2018-06-02T20:19:19.976Z,17.70
2018-06-02T20:21:48.386Z,17.60
2018-06-02T20:24:16.205Z,17.60
2018-06-02T20:26:43.793Z,17.60
2018-06-02T20:29:12.172Z,17.40
2018-06-02T20:31:40.526Z,17.40
2018-06-02T20:34:08.170Z,17.40
2018-06-02T20:36:35.819Z,17.40
2018-06-02T20:39:03.477Z,17.30
2018-06-02T20:41:31.128Z,17.30
2018-06-02T20:43:58.729Z,17.30
2018-06-02T20:46:26.332Z,17.30
2018-06-02T20:48:53.946Z,17.30
2018-06-02T20:51:21.555Z,17.40
2018-06-02T20:53:49.180Z,17.40
2018-06-02T20:56:17.574Z,17.30
2018-06-02T20:58:45.195Z,17.30
2018-06-02T21:01:12.825Z,17.30
2018-06-02T21:03:41.226Z,17.20
2018-06-02T21:06:08.890Z,17.20
2018-06-02T21:08:36.487Z,17.20
2018-06-02T21:11:04.938Z,17.20
2018-06-02T21:13:32.590Z,17.20
2018-06-02T21:16:00.219Z,17.20
2018-06-02T21:18:27.853Z,17.10
2018-06-02T21:20:55.470Z,17.10
2018-06-02T21:23:23.080Z,17.10
2018-06-02T21:25:50.751Z,17.00
2018-06-02T21:28:18.360Z,16.90
2018-06-02T21:30:46.000Z,16.80
2018-06-02T21:33:13.600Z,16.70
2018-06-02T21:35:42.010Z,16.80
2018-06-02T21:38:09.671Z,16.70
2018-06-02T21:40:37.297Z,16.80
2018-06-02T21:43:05.797Z,16.80
2018-06-02T21:45:37.950Z,16.80
2018-06-02T21:48:06.362Z,16.70
2018-06-02T21:50:34.053Z,16.70
2018-06-02T21:53:02.030Z,16.70
2018-06-02T21:55:29.719Z,16.60
2018-06-02T21:57:58.709Z,16.30
2018-06-02T22:00:27.217Z,16.30
2018-06-02T22:02:54.843Z,16.20
2018-06-02T22:05:22.544Z,16.20
2018-06-02T22:07:51.108Z,16.10
2018-06-02T22:10:20.498Z,16.10
2018-06-02T22:12:49.841Z,16.10
2018-06-02T22:15:17.547Z,16.00
2018-06-02T22:17:49.640Z,16.10
2018-06-02T22:20:17.294Z,16.10
2018-06-02T22:22:47.145Z,16.10
2018-06-02T22:25:15.070Z,16.10
2018-06-02T22:27:43.560Z,16.10
2018-06-02T22:30:13.155Z,16.20
2018-06-02T22:32:41.559Z,16.20
2018-06-02T22:35:09.220Z,16.20
2018-06-02T22:37:37.064Z,16.10
2018-06-02T22:40:05.551Z,16.00
2018-06-02T22:42:33.165Z,16.00
2018-06-02T22:45:00.750Z,15.90
2018-06-02T22:47:28.357Z,15.70
2018-06-02T22:49:56.157Z,15.70
2018-06-02T22:52:24.854Z,15.70
2018-06-02T22:54:52.528Z,15.70
2018-06-02T22:57:25.356Z,15.70
2018-06-02T22:59:53.000Z,15.60
2018-06-02T23:02:21.765Z,15.60
2018-06-02T23:04:50.180Z,15.50
2018-06-02T23:07:17.895Z,15.50
2018-06-02T23:09:46.237Z,15.40
2018-06-02T23:12:15.296Z,15.40
2018-06-02T23:14:43.040Z,15.40
2018-06-02T23:17:10.735Z,15.40
2018-06-02T23:19:38.509Z,15.30
2018-06-02T23:22:06.173Z,15.30
2018-06-02T23:24:34.770Z,15.30
2018-06-02T23:27:03.109Z,15.30
2018-06-02T23:29:31.516Z,15.30
2018-06-02T23:31:59.181Z,15.30
2018-06-02T23:34:27.642Z,15.30
2018-06-02T23:36:57.090Z,15.30
2018-06-02T23:39:24.869Z,15.30
2018-06-02T23:41:53.369Z,15.40
2018-06-02T23:44:22.129Z,15.30
2018-06-02T23:46:50.529Z,15.30
2018-06-02T23:49:18.130Z,15.30
2018-06-02T23:51:45.761Z,15.30
2018-06-02T23:54:15.189Z,15.30
2018-06-02T23:56:44.458Z,15.30
2018-06-02T23:59:12.188Z,15.20
